Time;durP1;ratioP1;P1;durP2;ratioP2;P2;SDS_P1;SDS_P2;PMS_P1;PMS_P2;Temp;Humidity;BMP_temperature;BMP_pressure;BME280_temperature;BME280_humidity;BME280_pressure;Samples;Min_cycle;Max_cycle;Signal;HPM_P1;HPM_P2
2022/10/10 00:03:07;;;;;;;15.52;4.07;;;19.10;54.90;;;;;;20978588;28;20056;-60
2022/10/10 00:13:09;;;;;;;16.50;4.10;;;19.10;55.00;;;;;;20997087;28;20053;-60
2022/10/10 00:23:10;;;;;;;9.00;3.70;;;19.10;55.00;;;;;;20995676;28;20049;-61
2022/10/10 00:33:12;;;;;;;15.30;4.25;;;19.10;55.20;;;;;;20995037;28;20421;-60
2022/10/10 00:43:15;;;;;;;12.20;3.17;;;19.00;55.60;;;;;;20994682;28;20493;-60
2022/10/10 00:53:20;;;;;;;17.63;4.50;;;18.80;55.80;;;;;;21005615;28;20056;-59
2022/10/10 01:03:22;;;;;;;11.43;3.90;;;18.70;56.20;;;;;;21011262;28;20542;-61
2022/10/10 01:13:34;;;;;;;14.93;4.35;;;18.60;56.50;;;;;;21009647;28;20055;-61
2022/10/10 01:23:44;;;;;;;12.88;3.72;;;18.60;56.60;;;;;;21009072;28;20129;-59
2022/10/10 01:34:04;;;;;;;17.08;4.93;;;18.70;56.70;;;;;;21008274;28;20052;-60
2022/10/10 01:44:07;;;;;;;12.38;4.10;;;18.60;57.00;;;;;;21005579;28;20051;-60
2022/10/10 01:54:32;;;;;;;14.30;5.05;;;18.60;56.90;;;;;;21001612;28;20278;-60
2022/10/10 02:04:48;;;;;;;13.17;4.40;;;18.60;56.90;;;;;;20983481;28;20045;-60
2022/10/10 02:15:09;;;;;;;13.10;4.43;;;18.60;57.20;;;;;;21001693;28;20052;-60
2022/10/10 02:25:24;;;;;;;15.10;4.57;;;18.60;57.40;;;;;;21001053;28;20048;-61
2022/10/10 02:35:32;;;;;;;13.50;4.40;;;18.60;57.60;;;;;;20999365;28;20117;-60
2022/10/10 02:45:35;;;;;;;9.40;4.03;;;18.50;57.70;;;;;;20958399;28;1194617;-60
2022/10/10 02:55:38;;;;;;;11.65;3.25;;;18.70;57.40;;;;;;21001798;28;20044;-61
2022/10/10 03:05:40;;;;;;;11.18;3.42;;;18.80;57.00;;;;;;21001551;28;20052;-61
2022/10/10 03:15:42;;;;;;;13.37;3.90;;;19.00;56.90;;;;;;21001762;28;20049;-60
2022/10/10 03:25:45;;;;;;;11.30;3.50;;;19.00;57.30;;;;;;21000360;28;20074;-62
2022/10/10 03:35:47;;;;;;;12.83;3.77;;;19.10;58.30;;;;;;20998644;28;20051;-59
2022/10/10 03:45:49;;;;;;;19.30;4.20;;;19.10;59.00;;;;;;20997332;28;20059;-61
2022/10/10 03:55:53;;;;;;;15.27;4.20;;;19.10;59.60;;;;;;20997558;28;20156;-60
2022/10/10 04:05:55;;;;;;;14.70;3.45;;;19.10;59.80;;;;;;20996360;28;20055;-60
2022/10/10 04:15:56;;;;;;;14.50;3.42;;;19.00;59.30;;;;;;20996402;28;20110;-60
2022/10/10 04:25:58;;;;;;;20.45;4.55;;;19.00;59.50;;;;;;20995301;28;20044;-60
2022/10/10 04:36:00;;;;;;;14.10;4.07;;;19.00;60.50;;;;;;20995224;28;20053;-59
2022/10/10 04:46:02;;;;;;;19.15;4.35;;;18.90;60.50;;;;;;20994227;28;20071;-59
2022/10/10 04:56:04;;;;;;;14.50;4.32;;;19.00;60.90;;;;;;20994465;28;20052;-59
2022/10/10 05:06:05;;;;;;;17.35;4.78;;;19.00;60.90;;;;;;20994176;28;20047;-59
2022/10/10 05:16:07;;;;;;;18.92;5.10;;;19.00;61.10;;;;;;20993793;28;20056;-61
2022/10/10 05:26:09;;;;;;;16.88;4.00;;;19.00;61.20;;;;;;20994240;28;20045;-62
2022/10/10 05:36:14;;;;;;;15.57;4.10;;;19.00;60.90;;;;;;20980474;28;20087;-60
2022/10/10 05:46:17;;;;;;;13.20;4.28;;;19.00;60.80;;;;;;21006758;28;20057;-60
2022/10/10 05:56:18;;;;;;;16.38;7.47;;;19.00;61.00;;;;;;21007647;28;20048;-61
2022/10/10 06:06:19;;;;;;;16.38;4.45;;;18.90;60.40;;;;;;21006224;28;20051;-60
2022/10/10 06:16:23;;;;;;;17.42;5.07;;;18.70;60.30;;;;;;21005937;28;20143;-59
2022/10/10 06:26:26;;;;;;;11.77;4.50;;;18.70;60.60;;;;;;21004240;28;20051;-61
2022/10/10 06:36:27;;;;;;;14.82;5.03;;;18.70;60.60;;;;;;21004748;28;20051;-60
2022/10/10 06:46:29;;;;;;;20.48;5.97;;;18.70;63.00;;;;;;21001843;28;20056;-62
2022/10/10 06:56:32;;;;;;;21.23;6.38;;;18.70;68.90;;;;;;21002486;28;20535;-62
2022/10/10 07:06:34;;;;;;;17.65;6.07;;;18.70;72.00;;;;;;21003043;28;20048;-60
2022/10/10 07:16:38;;;;;;;17.58;6.32;;;18.50;72.60;;;;;;21000895;28;20412;-60
2022/10/10 07:26:39;;;;;;;20.10;7.40;;;18.40;73.70;;;;;;21001013;28;20092;-60
2022/10/10 07:36:41;;;;;;;19.75;6.63;;;18.20;74.90;;;;;;20999577;28;20102;-60
2022/10/10 07:46:48;;;;;;;18.95;7.30;;;18.10;75.90;;;;;;20997881;28;20052;-60
2022/10/10 07:56:49;;;;;;;16.88;8.27;;;18.00;77.20;;;;;;20997937;28;20465;-60
2022/10/10 08:06:51;;;;;;;22.55;8.55;;;18.00;77.00;;;;;;20996781;28;20055;-60
2022/10/10 08:16:53;;;;;;;18.58;6.95;;;18.10;77.30;;;;;;20996478;28;20056;-59
2022/10/10 08:26:55;;;;;;;21.23;7.55;;;18.20;76.70;;;;;;20995557;28;20051;-58
2022/10/10 08:36:56;;;;;;;18.42;7.78;;;18.30;76.30;;;;;;20995057;28;20053;-58
2022/10/10 08:47:14;;;;;;;18.42;9.48;;;18.40;76.00;;;;;;20994124;28;20048;-60
2022/10/10 08:57:34;;;;;;;19.13;9.93;;;18.50;75.90;;;;;;20995461;28;20075;-60
2022/10/10 09:07:42;;;;;;;25.73;9.90;;;18.70;75.20;;;;;;20993617;28;20072;-61
2022/10/10 09:18:18;;;;;;;18.92;7.68;;;18.90;73.50;;;;;;21010646;28;20066;-60
2022/10/10 09:28:41;;;;;;;17.05;7.90;;;19.00;73.20;;;;;;21009574;28;20503;-61
2022/10/10 09:38:51;;;;;;;19.87;7.23;;;19.10;72.50;;;;;;21009359;28;20056;-62
2022/10/10 09:48:54;;;;;;;17.48;8.00;;;19.10;72.70;;;;;;21007409;28;20420;-59
2022/10/10 09:58:56;;;;;;;26.63;13.65;;;19.30;71.60;;;;;;21006746;28;20136;-59
2022/10/10 10:09:03;;;;;;;27.30;16.25;;;19.50;71.60;;;;;;21007183;28;20507;-60
2022/10/10 10:19:25;;;;;;;16.25;7.40;;;19.90;71.30;;;;;;21005286;28;20045;-61
2022/10/10 10:29:27;;;;;;;22.92;8.13;;;20.10;68.40;;;;;;21003592;28;20098;-60
2022/10/10 10:39:47;;;;;;;15.63;5.88;;;20.30;66.70;;;;;;20998281;28;20050;-61
2022/10/10 10:50:20;;;;;;;13.65;5.57;;;20.60;65.40;;;;;;20919541;28;20444;-60
2022/10/10 11:00:22;;;;;;;17.63;5.97;;;20.70;64.00;;;;;;21001166;28;20064;-60
2022/10/10 11:11:04;;;;;;;17.80;8.45;;;20.60;63.40;;;;;;21000924;28;20052;-60
2022/10/10 11:21:16;;;;;;;12.17;6.67;;;20.70;63.40;;;;;;20744705;28;20130;-59
2022/10/10 11:31:57;;;;;;;18.77;6.72;;;20.70;64.00;;;;;;20742977;28;20053;-60
2022/10/10 11:42:10;;;;;;;11.10;5.38;;;20.80;63.10;;;;;;20781832;28;20107;-62
2022/10/10 11:52:25;;;;;;;14.15;5.35;;;20.80;61.30;;;;;;20990571;28;20052;-60
2022/10/10 12:02:35;;;;;;;13.02;4.40;;;20.80;61.80;;;;;;21164882;28;20075;-61
2022/10/10 12:12:43;;;;;;;31.13;8.45;;;21.00;61.00;;;;;;21164436;28;20047;-61
2022/10/10 12:22:46;;;;;;;15.80;4.68;;;21.10;60.90;;;;;;21163869;28;20448;-60
2022/10/10 12:32:49;;;;;;;12.30;4.78;;;21.20;57.90;;;;;;21163160;28;20131;-61
2022/10/10 12:42:51;;;;;;;;;;;21.20;57.80;;;;;;21165125;28;20082;-60
2022/10/10 12:53:13;;;;;;;21.08;7.63;;;21.40;58.20;;;;;;21181203;28;20325;-60
2022/10/10 13:03:31;;;;;;;15.65;8.60;;;21.80;57.10;;;;;;21179165;28;20055;-61
2022/10/10 13:13:33;;;;;;;20.92;7.75;;;22.10;57.90;;;;;;21178793;28;20059;-59
2022/10/10 13:23:39;;;;;;;;;;;22.40;56.70;;;;;;21178884;28;20118;-60
2022/10/10 13:33:41;;;;;;;16.17;7.15;;;22.20;57.40;;;;;;21177217;28;19919;-60
2022/10/10 13:43:46;;;;;;;13.38;6.00;;;22.30;56.40;;;;;;21175942;28;20054;-62
2022/10/10 13:53:51;;;;;;;15.77;6.23;;;22.20;56.70;;;;;;21175362;28;20052;-60
2022/10/10 14:04:15;;;;;;;18.75;6.43;;;22.30;56.30;;;;;;21174015;28;20047;-59
2022/10/10 14:14:25;;;;;;;14.82;5.75;;;22.30;55.70;;;;;;21155150;28;20051;-60
2022/10/10 14:24:27;;;;;;;16.65;4.82;;;22.40;54.70;;;;;;21172598;28;20047;-62
2022/10/10 14:34:29;;;;;;;14.77;4.70;;;22.30;53.80;;;;;;21172232;28;20135;-60
2022/10/10 14:44:35;;;;;;;16.13;5.00;;;22.20;52.80;;;;;;21171638;28;20126;-60
2022/10/10 14:54:37;;;;;;;14.05;4.88;;;22.20;53.60;;;;;;21151737;28;20484;-60
2022/10/10 15:04:39;;;;;;;12.52;4.90;;;22.20;53.60;;;;;;21169954;28;20092;-61
2022/10/10 15:14:41;;;;;;;10.00;4.40;;;22.20;55.00;;;;;;21167943;28;20417;-60
2022/10/10 15:24:43;;;;;;;3.33;2.13;;;20.90;63.50;;;;;;21150414;28;20044;-64
2022/10/10 15:34:49;;;;;;;2.27;1.40;;;20.20;62.00;;;;;;21166404;28;20314;-59
2022/10/10 15:44:51;;;;;;;5.22;1.75;;;19.90;61.10;;;;;;21165435;28;20060;-59
2022/10/10 15:54:53;;;;;;;3.78;1.52;;;19.70;62.70;;;;;;21164324;28;20048;-59
2022/10/10 16:04:54;;;;;;;3.05;1.10;;;19.70;62.40;;;;;;21164441;28;20384;-60
2022/10/10 16:14:56;;;;;;;6.65;1.42;;;19.80;62.00;;;;;;21163789;28;20551;-61
2022/10/10 16:25:00;;;;;;;4.82;1.50;;;19.90;61.10;;;;;;21163781;28;20169;-61
2022/10/10 16:35:01;;;;;;;4.70;1.95;;;20.10;59.30;;;;;;21163558;28;20047;-60
2022/10/10 16:45:03;;;;;;;5.80;1.88;;;20.20;58.80;;;;;;21161850;28;20056;-61
2022/10/10 16:55:07;;;;;;;5.17;1.77;;;20.30;58.80;;;;;;21162920;28;20054;-60
2022/10/10 17:05:09;;;;;;;4.17;1.40;;;20.20;59.40;;;;;;21162319;28;20044;-61
2022/10/10 17:15:10;;;;;;;5.03;3.03;;;20.20;60.30;;;;;;21161041;28;20048;-60
2022/10/10 17:25:12;;;;;;;5.60;3.00;;;20.10;60.70;;;;;;21160625;28;20101;-60
2022/10/10 17:35:15;;;;;;;5.63;2.03;;;20.00;64.60;;;;;;21171218;28;20055;-60
2022/10/10 17:45:16;;;;;;;3.42;1.77;;;19.70;66.40;;;;;;21175871;28;20051;-60
2022/10/10 17:55:18;;;;;;;7.43;3.63;;;19.60;67.30;;;;;;21176012;28;20138;-60
2022/10/10 18:05:20;;;;;;;12.02;5.95;;;19.50;68.20;;;;;;21175555;28;20054;-62
2022/10/10 18:15:23;;;;;;;7.20;3.63;;;19.50;69.20;;;;;;21174264;28;20069;-60
2022/10/10 18:25:25;;;;;;;6.72;3.20;;;19.40;69.00;;;;;;21172802;28;20131;-60
2022/10/10 18:35:27;;;;;;;10.27;3.87;;;19.40;69.50;;;;;;21172475;28;20130;-62
2022/10/10 18:45:30;;;;;;;8.82;3.38;;;19.40;69.80;;;;;;21170796;28;20296;-64
2022/10/10 18:55:32;;;;;;;5.93;3.35;;;19.40;69.80;;;;;;21171165;28;20407;-62
2022/10/10 19:05:38;;;;;;;6.00;3.97;;;19.50;69.40;;;;;;21171816;28;20054;-61
2022/10/10 19:15:40;;;;;;;8.77;3.78;;;19.50;69.00;;;;;;21169120;28;20090;-61
2022/10/10 19:25:45;;;;;;;9.70;3.60;;;19.60;68.80;;;;;;21167430;28;20054;-60
2022/10/10 19:35:46;;;;;;;7.43;3.90;;;19.60;68.10;;;;;;21166346;28;20051;-59
2022/10/10 19:45:50;;;;;;;12.38;8.18;;;19.60;65.50;;;;;;21166080;28;20048;-61
2022/10/10 19:55:57;;;;;;;4.72;2.50;;;19.70;62.60;;;;;;21165888;28;20097;-61
2022/10/10 20:05:59;;;;;;;6.55;2.95;;;19.60;62.60;;;;;;21146743;28;20055;-60
2022/10/10 20:16:03;;;;;;;9.18;4.55;;;19.60;63.50;;;;;;21163365;28;20052;-60
2022/10/10 20:26:11;;;;;;;11.18;4.40;;;19.50;63.60;;;;;;21164307;28;20054;-62
2022/10/10 20:36:13;;;;;;;8.15;4.45;;;19.50;64.40;;;;;;21162924;28;20504;-60
2022/10/10 20:46:15;;;;;;;7.43;3.88;;;19.40;66.10;;;;;;21162031;28;20416;-62
2022/10/10 20:56:17;;;;;;;10.43;4.78;;;19.40;68.50;;;;;;21162898;28;20415;-61
2022/10/10 21:06:24;;;;;;;7.72;4.38;;;19.20;71.00;;;;;;21165845;28;20055;-62
2022/10/10 21:16:32;;;;;;;10.05;5.00;;;19.20;71.00;;;;;;21178210;28;20431;-61
2022/10/10 21:26:35;;;;;;;13.88;5.30;;;19.20;71.20;;;;;;21177859;28;20048;-61
2022/10/10 21:36:37;;;;;;;6.43;4.13;;;19.20;70.80;;;;;;21176793;28;20084;-63
2022/10/10 21:46:39;;;;;;;7.18;4.43;;;19.20;70.70;;;;;;21175921;28;20048;-60
2022/10/10 21:56:41;;;;;;;8.23;5.28;;;19.10;70.90;;;;;;21175642;28;20406;-60
2022/10/10 22:06:43;;;;;;;10.13;5.78;;;19.10;71.10;;;;;;21175222;28;20484;-61
2022/10/10 22:16:45;;;;;;;13.73;6.10;;;19.10;71.30;;;;;;21155008;28;20047;-59
2022/10/10 22:26:47;;;;;;;9.75;6.90;;;19.10;71.60;;;;;;21172702;28;20044;-60
2022/10/10 22:36:48;;;;;;;10.52;5.85;;;19.10;71.70;;;;;;21171699;28;20123;-60
2022/10/10 22:46:50;;;;;;;17.17;8.55;;;19.10;71.90;;;;;;21170270;28;20184;-61
2022/10/10 22:56:52;;;;;;;13.15;7.30;;;19.20;71.70;;;;;;21170307;28;20052;-60
2022/10/10 23:06:53;;;;;;;9.90;6.40;;;19.10;72.10;;;;;;21170010;28;20043;-60
2022/10/10 23:16:55;;;;;;;13.32;6.57;;;19.10;72.00;;;;;;21151144;28;20133;-60
2022/10/10 23:26:57;;;;;;;12.30;6.57;;;19.10;72.00;;;;;;21167555;28;20040;-60
2022/10/10 23:36:58;;;;;;;13.27;7.10;;;19.10;71.70;;;;;;21167086;28;20078;-60
2022/10/10 23:47:00;;;;;;;16.10;7.45;;;19.20;71.80;;;;;;21166693;28;20131;-59
2022/10/10 23:57:01;;;;;;;9.80;6.45;;;19.10;72.40;;;;;;21165644;28;20051;-60
